sensor_id;sensor_type;location;lat;lon;timestamp;temperature;humidity
13251;DHT22;6692;50.710;7.180;2023-02-21T00:01:21;9.60;99.90
13251;DHT22;6692;50.710;7.180;2023-02-21T00:03:28;9.60;99.90
13251;DHT22;6692;50.710;7.180;2023-02-21T00:05:34;9.60;99.90
13251;DHT22;6692;50.710;7.180;2023-02-21T00:07:41;9.60;99.90
13251;DHT22;6692;50.710;7.180;2023-02-21T00:09:48;9.60;99.90
13251;DHT22;6692;50.710;7.180;2023-02-21T00:11:55;9.60;99.90
13251;DHT22;6692;50.710;7.180;2023-02-21T00:14:02;9.60;99.90
13251;DHT22;6692;50.710;7.180;2023-02-21T00:16:08;9.70;99.90
13251;DHT22;6692;50.710;7.180;2023-02-21T00:18:15;9.60;99.90
13251;DHT22;6692;50.710;7.180;2023-02-21T00:20:22;9.70;99.90
13251;DHT22;6692;50.710;7.180;2023-02-21T00:22:29;9.60;99.90
13251;DHT22;6692;50.710;7.180;2023-02-21T00:24:36;9.70;99.90
13251;DHT22;6692;50.710;7.180;2023-02-21T00:26:43;9.70;99.90
13251;DHT22;6692;50.710;7.180;2023-02-21T00:28:49;9.70;99.90
13251;DHT22;6692;50.710;7.180;2023-02-21T00:30:56;9.70;99.90
13251;DHT22;6692;50.710;7.180;2023-02-21T00:33:03;9.70;99.90
13251;DHT22;6692;50.710;7.180;2023-02-21T00:35:10;9.70;99.90
13251;DHT22;6692;50.710;7.180;2023-02-21T00:37:16;9.70;99.90
13251;DHT22;6692;50.710;7.180;2023-02-21T00:39:23;9.70;99.90
13251;DHT22;6692;50.710;7.180;2023-02-21T00:41:30;9.70;99.90
13251;DHT22;6692;50.710;7.180;2023-02-21T00:43:37;9.60;99.90
13251;DHT22;6692;50.710;7.180;2023-02-21T00:45:44;9.60;99.90
13251;DHT22;6692;50.710;7.180;2023-02-21T00:47:51;9.60;99.90
13251;DHT22;6692;50.710;7.180;2023-02-21T00:49:58;9.60;99.90
13251;DHT22;6692;50.710;7.180;2023-02-21T00:52:04;9.70;99.90
13251;DHT22;6692;50.710;7.180;2023-02-21T00:54:11;9.70;99.90
13251;DHT22;6692;50.710;7.180;2023-02-21T00:56:18;9.70;99.90
13251;DHT22;6692;50.710;7.180;2023-02-21T00:58:24;9.70;99.90
13251;DHT22;6692;50.710;7.180;2023-02-21T01:00:31;9.60;99.90
13251;DHT22;6692;50.710;7.180;2023-02-21T01:02:38;9.60;99.90
13251;DHT22;6692;50.710;7.180;2023-02-21T01:04:45;9.60;99.90
13251;DHT22;6692;50.710;7.180;2023-02-21T01:06:51;9.60;99.90
13251;DHT22;6692;50.710;7.180;2023-02-21T01:08:58;9.60;99.90
13251;DHT22;6692;50.710;7.180;2023-02-21T01:11:05;9.60;99.90
13251;DHT22;6692;50.710;7.180;2023-02-21T01:13:12;9.60;99.90
13251;DHT22;6692;50.710;7.180;2023-02-21T01:15:18;9.70;99.90
13251;DHT22;6692;50.710;7.180;2023-02-21T01:17:26;9.70;99.90
13251;DHT22;6692;50.710;7.180;2023-02-21T01:19:32;9.60;99.90
13251;DHT22;6692;50.710;7.180;2023-02-21T01:21:39;9.70;99.90
13251;DHT22;6692;50.710;7.180;2023-02-21T01:23:46;9.70;99.90
13251;DHT22;6692;50.710;7.180;2023-02-21T01:25:53;9.70;99.90
13251;DHT22;6692;50.710;7.180;2023-02-21T01:27:59;9.70;99.90
13251;DHT22;6692;50.710;7.180;2023-02-21T01:30:07;9.70;99.90
13251;DHT22;6692;50.710;7.180;2023-02-21T01:32:13;9.70;99.90
13251;DHT22;6692;50.710;7.180;2023-02-21T01:34:21;9.70;99.90
13251;DHT22;6692;50.710;7.180;2023-02-21T01:36:27;9.70;99.90
13251;DHT22;6692;50.710;7.180;2023-02-21T01:38:34;9.70;99.90
13251;DHT22;6692;50.710;7.180;2023-02-21T01:40:41;9.70;99.90
13251;DHT22;6692;50.710;7.180;2023-02-21T01:42:47;9.60;99.90
13251;DHT22;6692;50.710;7.180;2023-02-21T01:47:11;9.70;99.90
13251;DHT22;6692;50.710;7.180;2023-02-21T01:49:18;9.60;99.90
13251;DHT22;6692;50.710;7.180;2023-02-21T01:51:26;9.60;99.90
13251;DHT22;6692;50.710;7.180;2023-02-21T01:53:31;9.60;99.90
13251;DHT22;6692;50.710;7.180;2023-02-21T01:55:38;9.60;99.90
13251;DHT22;6692;50.710;7.180;2023-02-21T01:57:45;9.60;99.90
13251;DHT22;6692;50.710;7.180;2023-02-21T01:59:52;9.60;99.90
13251;DHT22;6692;50.710;7.180;2023-02-21T02:02:02;9.60;99.90
13251;DHT22;6692;50.710;7.180;2023-02-21T02:04:06;9.60;99.90
13251;DHT22;6692;50.710;7.180;2023-02-21T02:06:13;9.60;99.90
13251;DHT22;6692;50.710;7.180;2023-02-21T02:08:20;9.60;99.90
13251;DHT22;6692;50.710;7.180;2023-02-21T02:10:26;9.60;99.90
13251;DHT22;6692;50.710;7.180;2023-02-21T02:12:40;9.60;99.90
13251;DHT22;6692;50.710;7.180;2023-02-21T02:17:29;9.60;99.90
13251;DHT22;6692;50.710;7.180;2023-02-21T02:19:50;9.60;99.90
13251;DHT22;6692;50.710;7.180;2023-02-21T02:22:06;9.60;99.90
13251;DHT22;6692;50.710;7.180;2023-02-21T02:24:08;9.50;99.90
13251;DHT22;6692;50.710;7.180;2023-02-21T02:26:11;9.50;99.90
13251;DHT22;6692;50.710;7.180;2023-02-21T02:28:17;9.50;99.90
13251;DHT22;6692;50.710;7.180;2023-02-21T02:30:42;9.50;99.90
13251;DHT22;6692;50.710;7.180;2023-02-21T02:32:51;9.50;99.90
13251;DHT22;6692;50.710;7.180;2023-02-21T02:37:01;9.60;99.90
13251;DHT22;6692;50.710;7.180;2023-02-21T02:39:01;9.60;99.90
13251;DHT22;6692;50.710;7.180;2023-02-21T02:41:05;9.60;99.90
13251;DHT22;6692;50.710;7.180;2023-02-21T02:43:09;9.60;99.90
13251;DHT22;6692;50.710;7.180;2023-02-21T02:45:13;9.50;99.90
13251;DHT22;6692;50.710;7.180;2023-02-21T02:47:16;9.60;99.90
13251;DHT22;6692;50.710;7.180;2023-02-21T02:49:13;9.50;99.90
13251;DHT22;6692;50.710;7.180;2023-02-21T02:51:13;9.50;99.90
13251;DHT22;6692;50.710;7.180;2023-02-21T02:53:16;9.50;99.90
13251;DHT22;6692;50.710;7.180;2023-02-21T02:55:25;9.50;99.90
13251;DHT22;6692;50.710;7.180;2023-02-21T02:57:23;9.50;99.90
13251;DHT22;6692;50.710;7.180;2023-02-21T02:59:24;9.50;99.90
13251;DHT22;6692;50.710;7.180;2023-02-21T03:04:15;9.50;99.90
13251;DHT22;6692;50.710;7.180;2023-02-21T03:06:19;9.50;99.90
13251;DHT22;6692;50.710;7.180;2023-02-21T03:08:23;9.50;99.90
13251;DHT22;6692;50.710;7.180;2023-02-21T03:10:22;9.50;99.90
13251;DHT22;6692;50.710;7.180;2023-02-21T03:13:01;9.40;99.90
13251;DHT22;6692;50.710;7.180;2023-02-21T03:15:02;9.40;99.90
13251;DHT22;6692;50.710;7.180;2023-02-21T03:17:00;9.40;99.90
13251;DHT22;6692;50.710;7.180;2023-02-21T03:19:05;9.40;99.90
13251;DHT22;6692;50.710;7.180;2023-02-21T03:21:04;9.40;99.90
13251;DHT22;6692;50.710;7.180;2023-02-21T03:23:04;9.40;99.90
13251;DHT22;6692;50.710;7.180;2023-02-21T03:25:05;9.40;99.90
13251;DHT22;6692;50.710;7.180;2023-02-21T03:27:06;9.40;99.90
13251;DHT22;6692;50.710;7.180;2023-02-21T03:29:06;9.50;99.90
13251;DHT22;6692;50.710;7.180;2023-02-21T03:31:08;9.50;99.90
13251;DHT22;6692;50.710;7.180;2023-02-21T03:33:08;9.50;99.90
13251;DHT22;6692;50.710;7.180;2023-02-21T03:35:08;9.50;99.90
13251;DHT22;6692;50.710;7.180;2023-02-21T03:37:17;9.60;99.90
13251;DHT22;6692;50.710;7.180;2023-02-21T03:39:10;9.50;99.90
13251;DHT22;6692;50.710;7.180;2023-02-21T03:41:10;9.60;99.90
13251;DHT22;6692;50.710;7.180;2023-02-21T03:43:11;9.60;99.90
13251;DHT22;6692;50.710;7.180;2023-02-21T03:45:12;9.60;99.90
13251;DHT22;6692;50.710;7.180;2023-02-21T03:47:14;9.60;99.90
13251;DHT22;6692;50.710;7.180;2023-02-21T03:49:14;9.60;99.90
13251;DHT22;6692;50.710;7.180;2023-02-21T03:51:16;9.60;99.90
13251;DHT22;6692;50.710;7.180;2023-02-21T03:53:17;9.60;99.90
13251;DHT22;6692;50.710;7.180;2023-02-21T03:55:18;9.60;99.90
13251;DHT22;6692;50.710;7.180;2023-02-21T03:57:18;9.60;99.90
13251;DHT22;6692;50.710;7.180;2023-02-21T03:59:20;9.70;99.90
13251;DHT22;6692;50.710;7.180;2023-02-21T04:01:21;9.70;99.90
13251;DHT22;6692;50.710;7.180;2023-02-21T04:03:22;9.70;99.90
13251;DHT22;6692;50.710;7.180;2023-02-21T04:05:23;9.70;99.90
13251;DHT22;6692;50.710;7.180;2023-02-21T04:07:24;9.70;99.90
13251;DHT22;6692;50.710;7.180;2023-02-21T04:09:24;9.70;99.90
13251;DHT22;6692;50.710;7.180;2023-02-21T04:11:25;9.70;99.90
13251;DHT22;6692;50.710;7.180;2023-02-21T04:13:26;9.70;99.90
13251;DHT22;6692;50.710;7.180;2023-02-21T04:15:26;9.70;99.90
13251;DHT22;6692;50.710;7.180;2023-02-21T04:17:27;9.70;99.90
13251;DHT22;6692;50.710;7.180;2023-02-21T04:19:28;9.70;99.90
13251;DHT22;6692;50.710;7.180;2023-02-21T04:21:29;9.70;99.90
13251;DHT22;6692;50.710;7.180;2023-02-21T04:23:30;9.60;99.90
13251;DHT22;6692;50.710;7.180;2023-02-21T04:25:31;9.70;99.90
13251;DHT22;6692;50.710;7.180;2023-02-21T04:27:32;9.60;99.90
13251;DHT22;6692;50.710;7.180;2023-02-21T04:29:33;9.60;99.90
13251;DHT22;6692;50.710;7.180;2023-02-21T04:31:34;9.70;99.90
13251;DHT22;6692;50.710;7.180;2023-02-21T04:33:35;9.60;99.90
13251;DHT22;6692;50.710;7.180;2023-02-21T04:35:36;9.70;99.90
13251;DHT22;6692;50.710;7.180;2023-02-21T04:37:36;9.70;99.90
13251;DHT22;6692;50.710;7.180;2023-02-21T04:39:37;9.70;99.90
13251;DHT22;6692;50.710;7.180;2023-02-21T04:41:38;9.70;99.90
13251;DHT22;6692;50.710;7.180;2023-02-21T04:43:40;9.70;99.90
13251;DHT22;6692;50.710;7.180;2023-02-21T04:45:39;9.70;99.90
13251;DHT22;6692;50.710;7.180;2023-02-21T04:47:40;9.70;99.90
13251;DHT22;6692;50.710;7.180;2023-02-21T04:49:41;9.60;99.90
13251;DHT22;6692;50.710;7.180;2023-02-21T04:51:41;9.70;99.90
13251;DHT22;6692;50.710;7.180;2023-02-21T04:53:43;9.60;99.90
13251;DHT22;6692;50.710;7.180;2023-02-21T04:55:43;9.60;99.90
13251;DHT22;6692;50.710;7.180;2023-02-21T04:57:44;9.60;99.90
13251;DHT22;6692;50.710;7.180;2023-02-21T04:59:45;9.60;99.90
13251;DHT22;6692;50.710;7.180;2023-02-21T05:01:46;9.60;99.90
13251;DHT22;6692;50.710;7.180;2023-02-21T05:03:48;9.50;99.90
13251;DHT22;6692;50.710;7.180;2023-02-21T05:05:49;9.50;99.90
13251;DHT22;6692;50.710;7.180;2023-02-21T05:07:49;9.50;99.90
13251;DHT22;6692;50.710;7.180;2023-02-21T05:09:51;9.50;99.90
13251;DHT22;6692;50.710;7.180;2023-02-21T05:11:51;9.40;99.90
13251;DHT22;6692;50.710;7.180;2023-02-21T05:13:53;9.40;99.90
13251;DHT22;6692;50.710;7.180;2023-02-21T05:15:53;9.40;99.90
13251;DHT22;6692;50.710;7.180;2023-02-21T05:17:54;9.30;99.90
13251;DHT22;6692;50.710;7.180;2023-02-21T05:19:55;9.20;99.90
13251;DHT22;6692;50.710;7.180;2023-02-21T05:21:56;9.10;99.90
13251;DHT22;6692;50.710;7.180;2023-02-21T05:23:56;9.00;99.90
13251;DHT22;6692;50.710;7.180;2023-02-21T05:25:57;8.90;99.90
13251;DHT22;6692;50.710;7.180;2023-02-21T05:27:57;8.80;99.90
13251;DHT22;6692;50.710;7.180;2023-02-21T05:29:59;8.70;99.90
13251;DHT22;6692;50.710;7.180;2023-02-21T05:31:59;8.60;99.90
13251;DHT22;6692;50.710;7.180;2023-02-21T05:34:00;8.60;99.90
13251;DHT22;6692;50.710;7.180;2023-02-21T05:36:02;8.50;99.90
13251;DHT22;6692;50.710;7.180;2023-02-21T05:38:02;8.40;99.90
13251;DHT22;6692;50.710;7.180;2023-02-21T05:40:03;8.40;99.90
13251;DHT22;6692;50.710;7.180;2023-02-21T05:42:05;8.40;99.90
13251;DHT22;6692;50.710;7.180;2023-02-21T05:44:06;8.40;99.90
13251;DHT22;6692;50.710;7.180;2023-02-21T05:46:06;8.40;99.90
13251;DHT22;6692;50.710;7.180;2023-02-21T05:48:07;8.40;99.90
13251;DHT22;6692;50.710;7.180;2023-02-21T05:50:08;8.30;99.90
13251;DHT22;6692;50.710;7.180;2023-02-21T05:52:10;8.30;99.90
13251;DHT22;6692;50.710;7.180;2023-02-21T05:54:13;8.30;99.90
13251;DHT22;6692;50.710;7.180;2023-02-21T05:56:11;8.20;99.90
13251;DHT22;6692;50.710;7.180;2023-02-21T05:58:12;8.20;99.90
13251;DHT22;6692;50.710;7.180;2023-02-21T06:00:16;8.20;99.90
13251;DHT22;6692;50.710;7.180;2023-02-21T06:02:16;8.20;99.90
13251;DHT22;6692;50.710;7.180;2023-02-21T06:04:17;8.20;99.90
13251;DHT22;6692;50.710;7.180;2023-02-21T06:06:18;8.20;99.90
13251;DHT22;6692;50.710;7.180;2023-02-21T06:08:18;8.10;99.90
13251;DHT22;6692;50.710;7.180;2023-02-21T06:10:19;8.10;99.90
13251;DHT22;6692;50.710;7.180;2023-02-21T06:12:20;8.10;99.90
13251;DHT22;6692;50.710;7.180;2023-02-21T06:14:20;8.10;99.90
13251;DHT22;6692;50.710;7.180;2023-02-21T06:16:21;8.10;99.90
13251;DHT22;6692;50.710;7.180;2023-02-21T06:18:22;8.20;99.90
13251;DHT22;6692;50.710;7.180;2023-02-21T06:20:22;8.20;99.90
13251;DHT22;6692;50.710;7.180;2023-02-21T06:22:24;8.30;99.90
13251;DHT22;6692;50.710;7.180;2023-02-21T06:24:24;8.30;99.90
13251;DHT22;6692;50.710;7.180;2023-02-21T06:26:25;8.30;99.90
13251;DHT22;6692;50.710;7.180;2023-02-21T06:28:29;8.40;99.90
13251;DHT22;6692;50.710;7.180;2023-02-21T06:30:30;8.40;99.90
13251;DHT22;6692;50.710;7.180;2023-02-21T06:32:30;8.40;99.90
13251;DHT22;6692;50.710;7.180;2023-02-21T06:34:32;8.50;99.90
13251;DHT22;6692;50.710;7.180;2023-02-21T06:36:32;8.50;99.90
13251;DHT22;6692;50.710;7.180;2023-02-21T06:38:34;8.60;99.90
13251;DHT22;6692;50.710;7.180;2023-02-21T06:40:34;8.50;99.90
13251;DHT22;6692;50.710;7.180;2023-02-21T06:42:35;8.60;99.90
13251;DHT22;6692;50.710;7.180;2023-02-21T06:44:36;8.60;99.90
13251;DHT22;6692;50.710;7.180;2023-02-21T06:46:38;8.60;99.90
13251;DHT22;6692;50.710;7.180;2023-02-21T06:48:38;8.60;99.90
13251;DHT22;6692;50.710;7.180;2023-02-21T06:50:39;8.60;99.90
13251;DHT22;6692;50.710;7.180;2023-02-21T06:52:40;8.60;99.90
13251;DHT22;6692;50.710;7.180;2023-02-21T06:54:40;8.60;99.90
13251;DHT22;6692;50.710;7.180;2023-02-21T06:56:42;8.60;99.90
13251;DHT22;6692;50.710;7.180;2023-02-21T06:58:44;8.70;99.90
13251;DHT22;6692;50.710;7.180;2023-02-21T07:00:44;8.70;99.90
13251;DHT22;6692;50.710;7.180;2023-02-21T07:02:46;8.70;99.90
13251;DHT22;6692;50.710;7.180;2023-02-21T07:04:46;8.70;99.90
13251;DHT22;6692;50.710;7.180;2023-02-21T07:06:47;8.70;99.90
13251;DHT22;6692;50.710;7.180;2023-02-21T07:08:48;8.80;99.90
13251;DHT22;6692;50.710;7.180;2023-02-21T07:10:48;8.80;99.90
13251;DHT22;6692;50.710;7.180;2023-02-21T07:12:49;8.90;99.90
13251;DHT22;6692;50.710;7.180;2023-02-21T07:14:50;8.90;99.90
13251;DHT22;6692;50.710;7.180;2023-02-21T07:16:51;8.90;99.90
13251;DHT22;6692;50.710;7.180;2023-02-21T07:18:51;8.90;99.90
13251;DHT22;6692;50.710;7.180;2023-02-21T07:20:52;8.90;99.90
13251;DHT22;6692;50.710;7.180;2023-02-21T07:22:53;9.00;99.90
13251;DHT22;6692;50.710;7.180;2023-02-21T07:24:54;8.90;99.90
13251;DHT22;6692;50.710;7.180;2023-02-21T07:26:54;9.00;99.90
13251;DHT22;6692;50.710;7.180;2023-02-21T07:28:55;9.00;99.90
13251;DHT22;6692;50.710;7.180;2023-02-21T07:30:56;9.00;99.90
13251;DHT22;6692;50.710;7.180;2023-02-21T07:32:56;9.00;99.90
13251;DHT22;6692;50.710;7.180;2023-02-21T07:34:57;9.10;99.90
13251;DHT22;6692;50.710;7.180;2023-02-21T07:36:58;9.10;99.90
13251;DHT22;6692;50.710;7.180;2023-02-21T07:38:58;9.20;99.90
13251;DHT22;6692;50.710;7.180;2023-02-21T07:41:00;9.20;99.90
13251;DHT22;6692;50.710;7.180;2023-02-21T07:42:59;9.30;99.90
13251;DHT22;6692;50.710;7.180;2023-02-21T07:45:01;9.40;99.90
13251;DHT22;6692;50.710;7.180;2023-02-21T07:47:02;9.30;99.90
13251;DHT22;6692;50.710;7.180;2023-02-21T07:49:03;9.30;99.90
13251;DHT22;6692;50.710;7.180;2023-02-21T07:51:06;9.50;99.90
13251;DHT22;6692;50.710;7.180;2023-02-21T07:53:06;9.50;99.90
13251;DHT22;6692;50.710;7.180;2023-02-21T07:55:07;9.60;99.90
13251;DHT22;6692;50.710;7.180;2023-02-21T07:57:08;9.60;99.90
13251;DHT22;6692;50.710;7.180;2023-02-21T07:59:08;9.60;99.90
13251;DHT22;6692;50.710;7.180;2023-02-21T08:01:10;9.70;99.90
13251;DHT22;6692;50.710;7.180;2023-02-21T08:03:12;9.70;99.90
13251;DHT22;6692;50.710;7.180;2023-02-21T08:05:13;9.70;99.90
13251;DHT22;6692;50.710;7.180;2023-02-21T08:07:12;9.70;99.90
13251;DHT22;6692;50.710;7.180;2023-02-21T08:09:13;9.80;99.90
13251;DHT22;6692;50.710;7.180;2023-02-21T08:11:14;9.80;99.90
13251;DHT22;6692;50.710;7.180;2023-02-21T08:13:14;9.90;99.90
13251;DHT22;6692;50.710;7.180;2023-02-21T08:15:15;9.90;99.90
13251;DHT22;6692;50.710;7.180;2023-02-21T08:17:16;9.90;99.90
13251;DHT22;6692;50.710;7.180;2023-02-21T08:19:17;10.00;99.90
13251;DHT22;6692;50.710;7.180;2023-02-21T08:21:17;10.10;99.90
13251;DHT22;6692;50.710;7.180;2023-02-21T08:23:18;10.10;99.90
13251;DHT22;6692;50.710;7.180;2023-02-21T08:25:19;10.10;99.90
13251;DHT22;6692;50.710;7.180;2023-02-21T08:27:19;10.10;99.90
13251;DHT22;6692;50.710;7.180;2023-02-21T08:29:20;10.10;99.90
13251;DHT22;6692;50.710;7.180;2023-02-21T08:31:20;10.10;99.90
13251;DHT22;6692;50.710;7.180;2023-02-21T08:33:22;10.10;99.90
13251;DHT22;6692;50.710;7.180;2023-02-21T08:35:22;10.10;99.90
13251;DHT22;6692;50.710;7.180;2023-02-21T08:37:24;10.30;99.90
13251;DHT22;6692;50.710;7.180;2023-02-21T08:39:25;10.30;99.90
13251;DHT22;6692;50.710;7.180;2023-02-21T08:41:34;10.30;99.90
13251;DHT22;6692;50.710;7.180;2023-02-21T08:43:34;10.40;99.90
13251;DHT22;6692;50.710;7.180;2023-02-21T08:45:35;10.40;99.90
13251;DHT22;6692;50.710;7.180;2023-02-21T08:47:36;10.40;99.90
13251;DHT22;6692;50.710;7.180;2023-02-21T08:49:37;10.40;99.90
13251;DHT22;6692;50.710;7.180;2023-02-21T08:51:37;10.50;99.90
13251;DHT22;6692;50.710;7.180;2023-02-21T08:53:38;10.60;99.90
13251;DHT22;6692;50.710;7.180;2023-02-21T08:55:39;10.80;99.90
13251;DHT22;6692;50.710;7.180;2023-02-21T08:57:39;10.90;99.90
13251;DHT22;6692;50.710;7.180;2023-02-21T08:59:40;10.90;99.90
13251;DHT22;6692;50.710;7.180;2023-02-21T09:01:40;10.90;99.90
13251;DHT22;6692;50.710;7.180;2023-02-21T09:03:41;11.00;99.90
13251;DHT22;6692;50.710;7.180;2023-02-21T09:05:42;11.20;99.90
13251;DHT22;6692;50.710;7.180;2023-02-21T09:07:43;11.10;99.90
13251;DHT22;6692;50.710;7.180;2023-02-21T09:09:44;11.10;99.90
13251;DHT22;6692;50.710;7.180;2023-02-21T09:11:45;11.10;99.90
13251;DHT22;6692;50.710;7.180;2023-02-21T09:13:46;11.10;99.90
13251;DHT22;6692;50.710;7.180;2023-02-21T09:15:46;11.10;99.90
13251;DHT22;6692;50.710;7.180;2023-02-21T09:17:47;11.10;99.90
13251;DHT22;6692;50.710;7.180;2023-02-21T09:19:49;11.20;99.90
13251;DHT22;6692;50.710;7.180;2023-02-21T09:21:49;11.20;99.90
13251;DHT22;6692;50.710;7.180;2023-02-21T09:23:51;11.30;99.90
13251;DHT22;6692;50.710;7.180;2023-02-21T09:25:52;11.30;99.90
13251;DHT22;6692;50.710;7.180;2023-02-21T09:27:54;11.30;99.90
13251;DHT22;6692;50.710;7.180;2023-02-21T09:29:54;11.30;99.90
13251;DHT22;6692;50.710;7.180;2023-02-21T09:31:55;11.30;99.90
13251;DHT22;6692;50.710;7.180;2023-02-21T09:33:55;11.30;99.90
13251;DHT22;6692;50.710;7.180;2023-02-21T09:35:56;11.30;99.90
13251;DHT22;6692;50.710;7.180;2023-02-21T09:37:57;11.30;99.90
13251;DHT22;6692;50.710;7.180;2023-02-21T09:39:58;11.30;99.90
13251;DHT22;6692;50.710;7.180;2023-02-21T09:41:58;11.40;99.90
13251;DHT22;6692;50.710;7.180;2023-02-21T09:43:59;11.20;99.90
13251;DHT22;6692;50.710;7.180;2023-02-21T09:46:04;11.10;99.90
13251;DHT22;6692;50.710;7.180;2023-02-21T09:48:08;11.10;99.90
13251;DHT22;6692;50.710;7.180;2023-02-21T09:50:11;11.10;99.90
13251;DHT22;6692;50.710;7.180;2023-02-21T09:52:18;11.00;99.90
13251;DHT22;6692;50.710;7.180;2023-02-21T09:54:22;11.00;99.90
13251;DHT22;6692;50.710;7.180;2023-02-21T09:56:28;10.90;99.90
13251;DHT22;6692;50.710;7.180;2023-02-21T09:58:27;10.80;99.90
13251;DHT22;6692;50.710;7.180;2023-02-21T10:00:32;10.80;99.90
13251;DHT22;6692;50.710;7.180;2023-02-21T10:02:39;10.80;99.90
13251;DHT22;6692;50.710;7.180;2023-02-21T10:06:47;10.70;99.90
13251;DHT22;6692;50.710;7.180;2023-02-21T10:08:52;10.60;99.90
13251;DHT22;6692;50.710;7.180;2023-02-21T10:13:38;10.60;99.90
13251;DHT22;6692;50.710;7.180;2023-02-21T10:15:51;10.60;99.90
13251;DHT22;6692;50.710;7.180;2023-02-21T10:18:00;10.60;99.90
13251;DHT22;6692;50.710;7.180;2023-02-21T10:20:01;10.60;99.90
13251;DHT22;6692;50.710;7.180;2023-02-21T10:22:00;10.60;99.90
13251;DHT22;6692;50.710;7.180;2023-02-21T10:24:01;10.60;99.90
13251;DHT22;6692;50.710;7.180;2023-02-21T10:26:03;10.60;99.90
13251;DHT22;6692;50.710;7.180;2023-02-21T10:28:03;10.60;99.90
13251;DHT22;6692;50.710;7.180;2023-02-21T10:30:06;10.60;99.90
13251;DHT22;6692;50.710;7.180;2023-02-21T10:32:07;10.70;99.90
13251;DHT22;6692;50.710;7.180;2023-02-21T10:34:08;10.70;99.90
13251;DHT22;6692;50.710;7.180;2023-02-21T10:36:09;10.70;99.90
13251;DHT22;6692;50.710;7.180;2023-02-21T10:38:12;10.70;99.90
13251;DHT22;6692;50.710;7.180;2023-02-21T10:40:28;10.70;99.90
13251;DHT22;6692;50.710;7.180;2023-02-21T10:42:30;10.70;99.90
13251;DHT22;6692;50.710;7.180;2023-02-21T10:44:28;10.80;99.90
13251;DHT22;6692;50.710;7.180;2023-02-21T10:46:33;10.90;99.90
13251;DHT22;6692;50.710;7.180;2023-02-21T10:48:35;10.90;99.90
13251;DHT22;6692;50.710;7.180;2023-02-21T10:50:42;10.90;99.90
13251;DHT22;6692;50.710;7.180;2023-02-21T10:52:46;10.90;99.90
13251;DHT22;6692;50.710;7.180;2023-02-21T10:54:59;10.90;99.90
13251;DHT22;6692;50.710;7.180;2023-02-21T10:57:01;11.00;99.90
13251;DHT22;6692;50.710;7.180;2023-02-21T10:59:03;11.00;99.90
13251;DHT22;6692;50.710;7.180;2023-02-21T11:01:13;11.00;99.90
13251;DHT22;6692;50.710;7.180;2023-02-21T11:03:23;11.10;99.90
13251;DHT22;6692;50.710;7.180;2023-02-21T11:05:23;11.10;99.90
13251;DHT22;6692;50.710;7.180;2023-02-21T11:07:24;11.10;99.90
13251;DHT22;6692;50.710;7.180;2023-02-21T11:09:45;11.20;99.90
13251;DHT22;6692;50.710;7.180;2023-02-21T11:11:45;11.20;99.90
13251;DHT22;6692;50.710;7.180;2023-02-21T11:13:46;11.30;99.90
13251;DHT22;6692;50.710;7.180;2023-02-21T11:15:47;11.30;99.90
13251;DHT22;6692;50.710;7.180;2023-02-21T11:17:53;11.30;99.90
13251;DHT22;6692;50.710;7.180;2023-02-21T11:20:24;11.40;99.90
13251;DHT22;6692;50.710;7.180;2023-02-21T11:22:09;11.40;99.90
13251;DHT22;6692;50.710;7.180;2023-02-21T11:24:10;11.40;99.90
13251;DHT22;6692;50.710;7.180;2023-02-21T11:26:10;11.40;99.90
13251;DHT22;6692;50.710;7.180;2023-02-21T11:28:20;11.50;99.90
13251;DHT22;6692;50.710;7.180;2023-02-21T11:30:21;11.50;99.90
13251;DHT22;6692;50.710;7.180;2023-02-21T11:32:25;11.60;99.90
13251;DHT22;6692;50.710;7.180;2023-02-21T11:34:27;11.60;99.90
13251;DHT22;6692;50.710;7.180;2023-02-21T11:36:26;11.70;99.90
13251;DHT22;6692;50.710;7.180;2023-02-21T11:38:31;11.70;99.90
13251;DHT22;6692;50.710;7.180;2023-02-21T11:40:33;11.80;99.90
13251;DHT22;6692;50.710;7.180;2023-02-21T11:42:32;11.80;99.90
13251;DHT22;6692;50.710;7.180;2023-02-21T11:44:33;11.90;99.90
13251;DHT22;6692;50.710;7.180;2023-02-21T11:46:56;12.00;99.90
13251;DHT22;6692;50.710;7.180;2023-02-21T11:49:22;12.00;99.90
13251;DHT22;6692;50.710;7.180;2023-02-21T11:51:25;12.10;99.90
13251;DHT22;6692;50.710;7.180;2023-02-21T11:53:25;12.10;99.90
13251;DHT22;6692;50.710;7.180;2023-02-21T11:55:23;12.10;99.90
13251;DHT22;6692;50.710;7.180;2023-02-21T11:57:39;12.20;99.90
13251;DHT22;6692;50.710;7.180;2023-02-21T12:00:06;12.20;99.90
13251;DHT22;6692;50.710;7.180;2023-02-21T12:02:11;12.30;99.90
13251;DHT22;6692;50.710;7.180;2023-02-21T12:06:35;12.30;99.90
13251;DHT22;6692;50.710;7.180;2023-02-21T12:08:36;12.40;99.90
13251;DHT22;6692;50.710;7.180;2023-02-21T12:10:44;12.50;99.90
13251;DHT22;6692;50.710;7.180;2023-02-21T12:12:44;12.60;99.90
13251;DHT22;6692;50.710;7.180;2023-02-21T12:15:05;12.60;99.90
13251;DHT22;6692;50.710;7.180;2023-02-21T12:17:23;12.60;99.90
13251;DHT22;6692;50.710;7.180;2023-02-21T12:19:36;12.70;99.90
13251;DHT22;6692;50.710;7.180;2023-02-21T12:23:58;12.80;99.90
13251;DHT22;6692;50.710;7.180;2023-02-21T12:26:05;12.80;99.90
13251;DHT22;6692;50.710;7.180;2023-02-21T12:28:10;12.90;99.90
13251;DHT22;6692;50.710;7.180;2023-02-21T12:30:29;13.00;99.90
13251;DHT22;6692;50.710;7.180;2023-02-21T12:32:48;13.00;99.90
13251;DHT22;6692;50.710;7.180;2023-02-21T12:35:03;13.10;99.90
13251;DHT22;6692;50.710;7.180;2023-02-21T12:39:21;13.20;99.90
13251;DHT22;6692;50.710;7.180;2023-02-21T12:41:25;13.20;99.90
13251;DHT22;6692;50.710;7.180;2023-02-21T12:43:35;13.30;99.90
13251;DHT22;6692;50.710;7.180;2023-02-21T12:45:37;13.50;99.90
13251;DHT22;6692;50.710;7.180;2023-02-21T12:47:37;13.40;99.90
13251;DHT22;6692;50.710;7.180;2023-02-21T12:49:50;13.50;99.90
13251;DHT22;6692;50.710;7.180;2023-02-21T12:51:50;13.50;99.90
13251;DHT22;6692;50.710;7.180;2023-02-21T12:53:54;13.60;99.90
13251;DHT22;6692;50.710;7.180;2023-02-21T12:55:57;13.70;99.90
13251;DHT22;6692;50.710;7.180;2023-02-21T12:58:29;13.70;99.90
13251;DHT22;6692;50.710;7.180;2023-02-21T13:00:29;13.80;99.90
13251;DHT22;6692;50.710;7.180;2023-02-21T13:02:33;14.10;99.90
13251;DHT22;6692;50.710;7.180;2023-02-21T13:04:34;14.80;99.90
13251;DHT22;6692;50.710;7.180;2023-02-21T13:06:35;15.60;99.90
13251;DHT22;6692;50.710;7.180;2023-02-21T13:11:06;18.00;99.90
13251;DHT22;6692;50.710;7.180;2023-02-21T13:13:09;18.00;99.90
13251;DHT22;6692;50.710;7.180;2023-02-21T13:15:15;18.70;99.90
13251;DHT22;6692;50.710;7.180;2023-02-21T13:17:16;19.50;99.90
13251;DHT22;6692;50.710;7.180;2023-02-21T13:19:16;19.50;99.90
13251;DHT22;6692;50.710;7.180;2023-02-21T13:21:27;19.90;99.90
13251;DHT22;6692;50.710;7.180;2023-02-21T13:23:24;20.10;99.90
13251;DHT22;6692;50.710;7.180;2023-02-21T13:25:37;20.20;99.90
13251;DHT22;6692;50.710;7.180;2023-02-21T13:27:56;20.40;99.90
13251;DHT22;6692;50.710;7.180;2023-02-21T13:29:59;20.50;99.90
13251;DHT22;6692;50.710;7.180;2023-02-21T13:32:05;20.60;99.90
13251;DHT22;6692;50.710;7.180;2023-02-21T13:34:06;20.60;99.90
13251;DHT22;6692;50.710;7.180;2023-02-21T13:36:20;20.60;99.90
13251;DHT22;6692;50.710;7.180;2023-02-21T13:38:18;20.70;99.90
13251;DHT22;6692;50.710;7.180;2023-02-21T13:40:20;20.70;99.90
13251;DHT22;6692;50.710;7.180;2023-02-21T13:42:20;20.60;99.90
13251;DHT22;6692;50.710;7.180;2023-02-21T13:44:23;20.60;99.90